createdAt,value
2018-08-28T00:01:51.253Z,79.17
2018-08-28T00:04:25.602Z,79.66
2018-08-28T00:07:00.641Z,78.87
2018-08-28T00:09:34.620Z,79.53
2018-08-28T00:12:09.003Z,79.08
2018-08-28T00:14:43.472Z,78.65
2018-08-28T00:17:17.767Z,79.00
2018-08-28T00:19:52.259Z,78.54
2018-08-28T00:22:26.633Z,78.54
2018-08-28T00:25:01.088Z,78.53
2018-08-28T00:27:34.928Z,79.06
2018-08-28T00:30:09.203Z,78.20
2018-08-28T00:32:43.156Z,78.92
2018-08-28T00:35:17.635Z,79.11
2018-08-28T00:37:51.960Z,78.79
2018-08-28T00:40:26.035Z,79.33
2018-08-28T00:43:00.232Z,79.06
2018-08-28T00:45:34.194Z,78.74
2018-08-28T00:48:08.476Z,78.85
2018-08-28T00:50:42.006Z,78.82
2018-08-28T00:53:17.606Z,79.41
2018-08-28T00:55:52.905Z,79.10
2018-08-28T00:58:27.627Z,78.54
2018-08-28T01:01:01.938Z,78.54
2018-08-28T01:03:35.750Z,78.72
2018-08-28T01:06:10.013Z,78.99
2018-08-28T01:08:43.536Z,79.10
2018-08-28T01:11:17.193Z,78.96
2018-08-28T01:13:51.281Z,79.07
2018-08-28T01:16:25.404Z,78.56
2018-08-28T01:19:00.121Z,78.73
2018-08-28T01:21:34.648Z,78.84
2018-08-28T01:24:08.455Z,79.34
2018-08-28T01:26:42.266Z,79.24
2018-08-28T01:29:10.938Z,79.17
2018-08-28T01:31:39.432Z,79.21
2018-08-28T01:34:07.982Z,78.64
2018-08-28T01:36:36.450Z,79.08
2018-08-28T01:39:05.839Z,79.34
2018-08-28T01:41:34.328Z,79.36
2018-08-28T01:44:03.228Z,79.48
2018-08-28T01:46:31.705Z,79.41
2018-08-28T01:49:00.165Z,79.74
2018-08-28T01:51:28.726Z,79.90
2018-08-28T01:53:57.201Z,79.80
2018-08-28T01:56:25.733Z,79.99
2018-08-28T01:58:54.249Z,80.22
2018-08-28T02:01:22.755Z,80.45
2018-08-28T02:03:51.251Z,80.53
2018-08-28T02:06:19.744Z,80.36
2018-08-28T02:08:48.228Z,80.99
2018-08-28T02:11:16.751Z,80.76
2018-08-28T02:13:45.224Z,81.46
2018-08-28T02:16:13.688Z,81.80
2018-08-28T02:18:42.556Z,81.93
2018-08-28T02:21:11.064Z,81.78
2018-08-28T02:23:39.533Z,81.84
2018-08-28T02:26:08.065Z,82.17
2018-08-28T02:28:36.608Z,82.10
2018-08-28T02:31:05.136Z,82.22
2018-08-28T02:33:33.760Z,82.32
2018-08-28T02:36:02.195Z,82.39
2018-08-28T02:38:30.891Z,82.04
2018-08-28T02:40:59.391Z,83.13
2018-08-28T02:43:27.875Z,82.83
2018-08-28T02:45:56.408Z,82.84
2018-08-28T02:48:25.010Z,83.25
2018-08-28T02:50:53.569Z,83.29
2018-08-28T02:53:22.045Z,83.09
2018-08-28T02:55:50.607Z,83.95
2018-08-28T02:58:19.219Z,83.90
2018-08-28T03:00:47.704Z,84.27
2018-08-28T03:03:16.302Z,84.31
2018-08-28T03:05:44.872Z,84.04
2018-08-28T03:08:13.358Z,84.02
2018-08-28T03:10:41.855Z,84.00
2018-08-28T03:13:10.383Z,84.23
2018-08-28T03:15:38.931Z,84.37
2018-08-28T03:18:07.574Z,83.92
2018-08-28T03:20:36.164Z,84.38
2018-08-28T03:23:04.720Z,84.41
2018-08-28T03:25:33.234Z,84.00
2018-08-28T03:28:01.789Z,84.04
2018-08-28T03:30:30.289Z,84.27
2018-08-28T03:32:58.856Z,84.25
2018-08-28T03:35:27.347Z,84.38
2018-08-28T03:37:55.832Z,84.72
2018-08-28T03:40:24.414Z,84.57
2018-08-28T03:42:53.008Z,85.04
2018-08-28T03:45:21.492Z,84.78
2018-08-28T03:47:49.974Z,84.87
2018-08-28T03:50:18.481Z,84.73
2018-08-28T03:52:46.971Z,84.75
2018-08-28T03:55:15.491Z,84.96
2018-08-28T03:57:43.965Z,84.75
2018-08-28T04:00:12.425Z,84.79
2018-08-28T04:02:40.951Z,85.42
2018-08-28T04:05:09.173Z,85.53
2018-08-28T04:07:37.631Z,85.56
2018-08-28T04:10:06.688Z,85.67
2018-08-28T04:12:35.205Z,85.24
2018-08-28T04:15:03.800Z,85.02
2018-08-28T04:17:36.428Z,85.02
2018-08-28T04:20:05.084Z,84.87
2018-08-28T04:22:33.619Z,84.78
2018-08-28T04:25:02.160Z,84.83
2018-08-28T04:27:30.677Z,84.93
2018-08-28T04:29:59.216Z,85.13
2018-08-28T04:32:27.701Z,84.84
2018-08-28T04:34:57.223Z,84.92
2018-08-28T04:37:25.724Z,84.76
2018-08-28T04:39:54.217Z,85.17
2018-08-28T04:42:22.942Z,85.23
2018-08-28T04:44:51.464Z,84.97
2018-08-28T04:47:19.921Z,85.27
2018-08-28T04:49:48.434Z,85.82
2018-08-28T04:52:16.936Z,86.31
2018-08-28T04:54:45.517Z,86.57
2018-08-28T04:57:14.085Z,86.54
2018-08-28T04:59:42.704Z,86.57
2018-08-28T05:02:11.723Z,87.04
2018-08-28T05:04:41.253Z,87.33
2018-08-28T05:07:09.776Z,87.05
2018-08-28T05:09:38.305Z,87.50
2018-08-28T05:12:06.882Z,87.87
2018-08-28T05:14:36.512Z,87.87
2018-08-28T05:17:05.205Z,87.29
2018-08-28T05:19:33.673Z,87.74
2018-08-28T05:22:02.184Z,87.30
2018-08-28T05:24:30.672Z,87.40
2018-08-28T05:26:59.589Z,87.25
2018-08-28T05:29:28.070Z,86.79
2018-08-28T05:31:56.593Z,86.87
2018-08-28T05:34:25.104Z,86.91
2018-08-28T05:36:53.678Z,86.69
2018-08-28T05:39:23.128Z,86.69
2018-08-28T05:41:51.703Z,86.63
2018-08-28T05:44:20.168Z,86.58
2018-08-28T05:46:48.673Z,86.84
2018-08-28T05:49:17.145Z,86.10
2018-08-28T05:51:46.669Z,86.64
2018-08-28T05:54:15.216Z,86.33
2018-08-28T05:56:43.673Z,86.49
2018-08-28T05:59:12.256Z,86.06
2018-08-28T06:01:40.778Z,85.79
2018-08-28T06:04:09.772Z,85.78
2018-08-28T06:06:38.288Z,85.39
2018-08-28T06:09:07.221Z,85.27
2018-08-28T06:11:36.545Z,85.47
2018-08-28T06:14:10.681Z,85.17
2018-08-28T06:16:40.673Z,84.56
2018-08-28T06:19:09.591Z,85.27
2018-08-28T06:21:38.321Z,84.71
2018-08-28T06:24:07.325Z,85.03
2018-08-28T06:26:36.268Z,85.16
2018-08-28T06:29:05.457Z,85.52
2018-08-28T06:31:34.590Z,85.53
2018-08-28T06:34:03.437Z,84.98
2018-08-28T06:36:32.047Z,84.95
2018-08-28T06:39:00.751Z,85.04
2018-08-28T06:41:29.528Z,84.77
2018-08-28T06:43:58.173Z,84.85
2018-08-28T06:46:26.862Z,84.50
2018-08-28T06:48:56.069Z,84.53
2018-08-28T06:51:24.633Z,84.13
2018-08-28T06:53:53.317Z,84.34
2018-08-28T06:56:21.964Z,84.27
2018-08-28T06:58:50.568Z,83.54
2018-08-28T07:01:19.254Z,83.50
2018-08-28T07:03:47.885Z,83.43
2018-08-28T07:06:16.465Z,83.54
2018-08-28T07:08:45.097Z,82.77
2018-08-28T07:11:13.658Z,82.59
2018-08-28T07:13:42.273Z,82.80
2018-08-28T07:16:10.888Z,82.10
2018-08-28T07:18:39.493Z,82.14
2018-08-28T07:21:08.120Z,82.14
2018-08-28T07:23:36.726Z,81.34
2018-08-28T07:26:05.423Z,81.06
2018-08-28T07:28:33.988Z,81.12
2018-08-28T07:31:02.571Z,81.10
2018-08-28T07:33:31.154Z,80.56
2018-08-28T07:35:59.795Z,80.45
2018-08-28T07:38:28.470Z,80.80
2018-08-28T07:40:57.161Z,79.87
2018-08-28T07:43:25.829Z,80.00
2018-08-28T07:45:54.416Z,79.35
2018-08-28T07:48:23.056Z,79.28
2018-08-28T07:50:51.644Z,79.02
2018-08-28T07:53:20.212Z,77.79
2018-08-28T07:55:48.696Z,77.79
2018-08-28T07:58:17.305Z,76.69
2018-08-28T08:00:45.984Z,77.18
2018-08-28T08:03:14.617Z,77.14
2018-08-28T08:05:43.253Z,76.83
2018-08-28T08:08:11.838Z,75.80
2018-08-28T08:10:40.427Z,75.87
2018-08-28T08:13:09.021Z,75.53
2018-08-28T08:15:37.576Z,75.33
2018-08-28T08:18:06.559Z,73.95
2018-08-28T08:20:35.065Z,73.53
2018-08-28T08:23:03.562Z,74.26
2018-08-28T08:25:32.088Z,73.94
2018-08-28T08:28:00.653Z,74.43
2018-08-28T08:30:29.216Z,74.94
2018-08-28T08:32:57.771Z,73.40
2018-08-28T08:35:26.338Z,72.89
2018-08-28T08:37:54.809Z,72.50
2018-08-28T08:40:23.356Z,71.68
2018-08-28T08:42:51.959Z,71.90
2018-08-28T08:45:20.518Z,70.96
2018-08-28T08:47:49.317Z,70.48
2018-08-28T08:50:17.808Z,70.85
2018-08-28T08:52:46.359Z,70.26
2018-08-28T08:55:14.866Z,69.39
2018-08-28T08:57:43.356Z,67.56
2018-08-28T09:00:11.891Z,67.00
2018-08-28T09:02:40.384Z,66.76
2018-08-28T09:05:09.333Z,67.43
2018-08-28T09:07:37.860Z,66.38
2018-08-28T09:10:06.426Z,66.07
2018-08-28T09:12:34.969Z,65.28
2018-08-28T09:15:03.516Z,63.75
2018-08-28T09:17:32.009Z,64.35
2018-08-28T09:20:00.502Z,65.36
2018-08-28T09:22:29.469Z,65.98
2018-08-28T09:24:58.081Z,65.97
2018-08-28T09:27:26.640Z,64.49
2018-08-28T09:29:55.484Z,64.50
2018-08-28T09:32:23.968Z,62.48
2018-08-28T09:34:52.544Z,62.91
2018-08-28T09:37:21.039Z,61.96
2018-08-28T09:39:49.918Z,63.25
2018-08-28T09:42:18.600Z,64.07
2018-08-28T09:44:47.096Z,63.18
2018-08-28T09:47:15.657Z,61.58
2018-08-28T09:49:44.132Z,61.60
2018-08-28T09:52:12.664Z,61.96
2018-08-28T09:54:41.152Z,61.90
2018-08-28T09:57:09.658Z,62.08
2018-08-28T09:59:38.193Z,61.65
2018-08-28T10:02:06.879Z,60.82
2018-08-28T10:04:35.404Z,60.87
2018-08-28T10:07:03.943Z,60.91
2018-08-28T10:09:32.429Z,60.44
2018-08-28T10:12:00.998Z,59.67
2018-08-28T10:14:29.558Z,59.44
2018-08-28T10:16:58.048Z,59.88
2018-08-28T10:19:26.575Z,60.32
2018-08-28T10:21:55.137Z,60.85
2018-08-28T10:24:23.636Z,60.51
2018-08-28T10:26:52.192Z,60.59
2018-08-28T10:29:20.694Z,59.26
2018-08-28T10:31:49.244Z,59.58
2018-08-28T10:34:17.801Z,60.50
2018-08-28T10:36:46.286Z,58.75
2018-08-28T10:39:14.767Z,58.20
2018-08-28T10:41:43.277Z,56.79
2018-08-28T10:44:11.792Z,58.36
2018-08-28T10:46:40.732Z,58.71
2018-08-28T10:49:09.188Z,59.05
2018-08-28T10:51:37.865Z,58.54
2018-08-28T10:54:06.569Z,59.68
2018-08-28T10:56:35.153Z,59.19
2018-08-28T10:59:03.756Z,58.70
2018-08-28T11:01:32.251Z,58.94
2018-08-28T11:04:00.717Z,58.88
2018-08-28T11:06:29.272Z,58.14
2018-08-28T11:08:57.879Z,58.31
2018-08-28T11:11:26.406Z,59.31
2018-08-28T11:13:54.892Z,57.42
2018-08-28T11:16:23.400Z,57.21
2018-08-28T11:18:51.997Z,55.65
2018-08-28T11:21:20.543Z,56.00
2018-08-28T11:23:49.146Z,54.89
2018-08-28T11:26:17.630Z,54.12
2018-08-28T11:28:46.179Z,54.44
2018-08-28T11:31:14.850Z,54.33
2018-08-28T11:33:43.292Z,54.78
2018-08-28T11:36:11.956Z,55.26
2018-08-28T11:38:40.474Z,54.80
2018-08-28T11:41:08.993Z,53.88
2018-08-28T11:43:37.692Z,53.86
2018-08-28T11:46:06.604Z,52.41
2018-08-28T11:48:35.514Z,51.46
2018-08-28T11:51:04.005Z,52.91
2018-08-28T11:53:32.472Z,50.62
2018-08-28T11:56:01.061Z,51.18
2018-08-28T11:58:29.604Z,51.15
2018-08-28T12:00:58.548Z,49.57
2018-08-28T12:03:27.077Z,50.20
2018-08-28T12:05:55.692Z,50.77
2018-08-28T12:08:24.221Z,48.13
2018-08-28T12:10:52.830Z,49.59
2018-08-28T12:13:21.427Z,49.93
2018-08-28T12:15:49.992Z,50.08
2018-08-28T12:18:18.528Z,50.89
2018-08-28T12:20:47.115Z,49.91
2018-08-28T12:23:15.623Z,49.34
2018-08-28T12:25:44.175Z,49.08
2018-08-28T12:28:12.695Z,49.76
2018-08-28T12:30:41.169Z,50.73
2018-08-28T12:33:09.998Z,50.34
2018-08-28T12:35:38.521Z,51.40
2018-08-28T12:38:07.083Z,53.25
2018-08-28T12:40:35.658Z,52.77
2018-08-28T12:43:04.241Z,53.63
2018-08-28T12:45:32.777Z,53.94
2018-08-28T12:48:01.735Z,54.85
2018-08-28T12:50:30.300Z,54.79
2018-08-28T12:52:58.840Z,55.69
2018-08-28T12:55:27.444Z,56.53
2018-08-28T12:57:56.040Z,56.51
2018-08-28T13:00:24.644Z,57.01
2018-08-28T13:02:53.192Z,57.56
2018-08-28T13:05:21.858Z,58.12
2018-08-28T13:07:50.485Z,56.91
2018-08-28T13:10:19.237Z,57.46
2018-08-28T13:12:47.974Z,56.98
2018-08-28T13:15:16.593Z,56.68
2018-08-28T13:17:45.216Z,56.60
2018-08-28T13:20:13.773Z,56.36
2018-08-28T13:22:42.272Z,56.11
2018-08-28T13:25:11.465Z,56.50
2018-08-28T13:27:39.965Z,56.55
2018-08-28T13:30:08.472Z,56.27
2018-08-28T13:32:36.951Z,55.70
2018-08-28T13:35:05.469Z,55.90
2018-08-28T13:37:33.961Z,55.14
2018-08-28T13:40:02.601Z,55.09
2018-08-28T13:42:31.140Z,55.67
2018-08-28T13:44:59.654Z,53.58
2018-08-28T13:47:28.132Z,55.24
2018-08-28T13:49:57.025Z,54.05
2018-08-28T13:52:25.485Z,52.28
2018-08-28T13:54:53.971Z,53.86
2018-08-28T13:57:22.460Z,53.68
2018-08-28T13:59:51.199Z,53.01
2018-08-28T14:02:19.673Z,52.96
2018-08-28T14:04:49.086Z,52.83
2018-08-28T14:07:17.688Z,52.70
2018-08-28T14:09:46.253Z,53.00
2018-08-28T14:12:14.786Z,52.10
2018-08-28T14:14:43.330Z,51.02
2018-08-28T14:17:11.832Z,52.48
2018-08-28T14:19:40.368Z,51.47
2018-08-28T14:22:08.953Z,49.27
2018-08-28T14:24:37.464Z,49.09
2018-08-28T14:27:06.705Z,49.65
2018-08-28T14:29:35.321Z,49.50
2018-08-28T14:32:03.856Z,49.76
2018-08-28T14:34:32.464Z,50.11
2018-08-28T14:37:00.968Z,49.51
2018-08-28T14:39:29.451Z,49.63
2018-08-28T14:41:58.078Z,49.46
2018-08-28T14:44:26.565Z,49.51
2018-08-28T14:46:55.045Z,50.21
2018-08-28T14:49:23.625Z,48.85
2018-08-28T14:51:52.149Z,49.99
2018-08-28T14:54:20.666Z,51.84
2018-08-28T14:56:49.227Z,51.18
2018-08-28T14:59:18.060Z,51.22
2018-08-28T15:01:46.533Z,51.19
2018-08-28T15:04:15.092Z,52.35
2018-08-28T15:06:43.641Z,52.91
2018-08-28T15:09:12.128Z,53.84
2018-08-28T15:11:40.612Z,51.73
2018-08-28T15:14:09.159Z,51.72
2018-08-28T15:16:37.726Z,51.63
2018-08-28T15:19:06.543Z,52.15
2018-08-28T15:21:35.051Z,52.01
2018-08-28T15:24:03.537Z,51.91
2018-08-28T15:26:32.040Z,52.39
2018-08-28T15:29:00.605Z,54.37
2018-08-28T15:31:29.107Z,54.12
2018-08-28T15:33:57.694Z,53.83
2018-08-28T15:36:26.368Z,53.65
2018-08-28T15:38:55.193Z,54.34
2018-08-28T15:41:23.716Z,54.85
2018-08-28T15:43:52.240Z,54.27
2018-08-28T15:46:20.796Z,55.24
2018-08-28T15:48:49.379Z,55.06
2018-08-28T15:51:17.947Z,52.81
2018-08-28T15:53:47.468Z,53.85
2018-08-28T15:56:15.988Z,53.99
2018-08-28T15:58:44.544Z,55.69
2018-08-28T16:01:13.104Z,55.01
2018-08-28T16:03:41.623Z,55.42
2018-08-28T16:06:10.141Z,55.58
2018-08-28T16:08:38.654Z,54.76
2018-08-28T16:11:07.224Z,54.36
2018-08-28T16:13:35.705Z,54.86
2018-08-28T16:16:04.246Z,54.95
2018-08-28T16:18:32.783Z,55.38
2018-08-28T16:21:01.518Z,55.46
2018-08-28T16:23:32.665Z,56.80
2018-08-28T16:26:01.397Z,56.59
2018-08-28T16:28:30.080Z,57.61
2018-08-28T16:30:58.660Z,57.95
2018-08-28T16:33:27.263Z,58.98
2018-08-28T16:35:56.108Z,57.82
2018-08-28T16:38:24.461Z,56.92
2018-08-28T16:40:53.041Z,56.33
2018-08-28T16:43:21.576Z,56.42
2018-08-28T16:45:50.162Z,56.46
2018-08-28T16:48:18.748Z,56.57
2018-08-28T16:50:47.240Z,57.69
2018-08-28T16:53:15.757Z,57.20
2018-08-28T16:55:44.342Z,58.38
2018-08-28T16:58:12.843Z,56.55
2018-08-28T17:13:31.179Z,60.78
2018-08-28T17:19:11.362Z,61.84
2018-08-28T17:22:08.713Z,61.87
2018-08-28T17:24:58.336Z,62.46
2018-08-28T17:28:13.516Z,61.83
2018-08-28T17:31:20.392Z,61.68
2018-08-28T17:37:02.954Z,62.50
2018-08-28T17:39:57.264Z,63.68
2018-08-28T17:48:53.379Z,65.38
2018-08-28T17:52:24.122Z,66.05
2018-08-28T17:55:11.809Z,65.68
2018-08-28T18:00:53.674Z,66.74
2018-08-28T18:09:40.125Z,66.80
2018-08-28T18:12:40.293Z,66.62
2018-08-28T18:15:11.256Z,66.54
2018-08-28T18:27:14.807Z,68.37
2018-08-28T18:29:50.646Z,68.57
2018-08-28T18:32:25.389Z,68.67
2018-08-28T18:35:00.203Z,68.89
2018-08-28T18:37:34.945Z,68.83
2018-08-28T18:40:03.852Z,68.88
2018-08-28T18:42:32.341Z,68.64
2018-08-28T18:45:00.907Z,68.51
2018-08-28T18:47:29.381Z,69.17
2018-08-28T18:49:57.966Z,69.30
2018-08-28T18:52:26.569Z,69.55
2018-08-28T18:54:55.064Z,69.42
2018-08-28T18:57:23.684Z,69.50
2018-08-28T18:59:52.252Z,69.54
2018-08-28T19:02:20.881Z,69.73
2018-08-28T19:04:49.404Z,69.45
2018-08-28T19:07:17.894Z,69.56
2018-08-28T19:09:46.369Z,69.84
2018-08-28T19:12:14.990Z,70.06
2018-08-28T19:14:43.579Z,70.07
2018-08-28T19:17:12.068Z,70.91
2018-08-28T19:19:40.979Z,70.87
2018-08-28T19:22:09.781Z,69.46
2018-08-28T19:24:38.292Z,69.14
2018-08-28T19:27:06.925Z,69.44
2018-08-28T19:29:35.438Z,69.65
2018-08-28T19:32:04.048Z,70.07
2018-08-28T19:34:32.904Z,70.57
2018-08-28T19:37:01.502Z,70.91
2018-08-28T19:39:30.249Z,71.24
2018-08-28T19:41:58.826Z,72.12
2018-08-28T19:44:27.292Z,72.27
2018-08-28T19:46:55.876Z,72.81
2018-08-28T19:49:24.356Z,72.53
2018-08-28T19:51:52.892Z,71.35
2018-08-28T19:54:21.411Z,71.17
2018-08-28T19:56:49.970Z,71.28
2018-08-28T19:59:18.517Z,71.51
2018-08-28T20:01:47.021Z,71.90
2018-08-28T20:04:15.553Z,72.39
2018-08-28T20:06:44.036Z,72.48
2018-08-28T20:09:12.532Z,72.73
2018-08-28T20:11:41.062Z,72.34
2018-08-28T20:14:09.695Z,72.50
2018-08-28T20:16:38.309Z,73.24
2018-08-28T20:19:06.864Z,73.59
2018-08-28T20:21:35.358Z,73.64
2018-08-28T20:24:04.581Z,74.27
2018-08-28T20:26:33.126Z,74.20
2018-08-28T20:29:01.641Z,74.22
2018-08-28T20:31:30.243Z,74.07
2018-08-28T20:33:58.757Z,74.63
2018-08-28T20:36:27.304Z,75.32
2018-08-28T20:38:55.857Z,74.69
2018-08-28T20:41:24.400Z,75.53
2018-08-28T20:43:52.919Z,75.32
2018-08-28T20:46:21.400Z,76.04
2018-08-28T20:48:49.935Z,75.94
2018-08-28T20:51:18.442Z,75.98
2018-08-28T20:53:47.014Z,74.91
2018-08-28T20:56:15.516Z,75.49
2018-08-28T20:58:44.028Z,75.97
2018-08-28T21:01:12.593Z,76.66
2018-08-28T21:03:41.128Z,76.19
2018-08-28T21:06:09.638Z,76.20
2018-08-28T21:08:38.191Z,76.53
2018-08-28T21:11:06.876Z,76.55
2018-08-28T21:13:35.400Z,76.92
2018-08-28T21:16:03.999Z,76.78
2018-08-28T21:18:32.762Z,77.91
2018-08-28T21:21:01.267Z,77.88
2018-08-28T21:23:29.837Z,77.86
2018-08-28T21:25:58.510Z,77.66
2018-08-28T21:28:27.037Z,77.84
2018-08-28T21:30:56.946Z,77.29
2018-08-28T21:33:25.718Z,76.92
2018-08-28T21:35:54.843Z,77.48
2018-08-28T21:38:23.780Z,77.66
2018-08-28T21:40:52.593Z,78.14
2018-08-28T21:43:21.353Z,77.93
2018-08-28T21:45:50.645Z,78.47
2018-08-28T21:48:19.768Z,78.43
2018-08-28T21:50:48.331Z,79.06
2018-08-28T21:53:17.087Z,79.57
2018-08-28T21:55:45.667Z,78.89
2018-08-28T21:58:14.240Z,78.89
2018-08-28T22:00:42.897Z,79.51
2018-08-28T22:03:11.438Z,79.12
2018-08-28T22:05:40.071Z,79.21
2018-08-28T22:08:08.656Z,79.60
2018-08-28T22:10:37.240Z,79.68
2018-08-28T22:13:05.837Z,80.05
2018-08-28T22:15:34.370Z,80.33
2018-08-28T22:18:02.904Z,80.29
2018-08-28T22:20:31.452Z,80.49
2018-08-28T22:23:00.100Z,80.28
2018-08-28T22:25:28.609Z,79.48
2018-08-28T22:27:57.216Z,79.57
2018-08-28T22:30:25.749Z,79.05
2018-08-28T22:32:54.292Z,79.70
2018-08-28T22:35:22.831Z,80.03
2018-08-28T22:37:51.463Z,79.85
2018-08-28T22:40:20.037Z,79.87
2018-08-28T22:42:48.532Z,80.22
2018-08-28T22:45:17.060Z,80.31
2018-08-28T22:47:45.632Z,80.72
2018-08-28T22:50:14.123Z,80.64
2018-08-28T22:52:42.637Z,81.05
2018-08-28T22:55:11.140Z,80.61
2018-08-28T22:57:39.632Z,80.73
2018-08-28T23:00:08.216Z,80.94
2018-08-28T23:02:36.853Z,80.77
2018-08-28T23:05:05.855Z,81.43
2018-08-28T23:07:34.349Z,81.62
2018-08-28T23:10:02.897Z,81.31
2018-08-28T23:12:31.530Z,81.57
2018-08-28T23:15:00.060Z,81.51
2018-08-28T23:17:28.702Z,81.13
2018-08-28T23:19:57.272Z,80.67
2018-08-28T23:22:26.814Z,80.69
2018-08-28T23:24:55.338Z,80.61
2018-08-28T23:27:23.877Z,81.25
2018-08-28T23:29:53.538Z,81.37
2018-08-28T23:32:22.132Z,81.57
2018-08-28T23:34:50.667Z,81.55
2018-08-28T23:37:19.222Z,81.33
2018-08-28T23:39:47.743Z,81.64
2018-08-28T23:42:16.280Z,80.95
2018-08-28T23:44:44.892Z,81.43
2018-08-28T23:47:13.412Z,80.98
2018-08-28T23:49:41.933Z,81.06
2018-08-28T23:52:10.763Z,81.62
2018-08-28T23:54:39.280Z,81.25
2018-08-28T23:57:07.804Z,81.94
2018-08-28T23:59:36.532Z,81.88
